< Typhoon 199308 1993 Season Typhoon 199310 >
Typhoon 199309 (TASHA)
General InformationTrack Information on Google MapsDetailed Wind InformationList of All Images || Disaster Info.ResourceGoogle EarthGE AnimationAtom FeedGeoJSON
Detalied Best Track (Time Zone = UTC)
Year Month Day Hour Lat. Long. Pressure (hPa) Wind (kt) Class Image Chart
1993 8 13 18 8.0 142.0 1008 0 2 Image Chart
1993 8 14 00 8.5 140.0 1008 0 2 Image Chart
1993 8 14 06 9.0 138.0 1008 0 2 Image Chart
1993 8 14 12 9.0 136.0 1008 0 2 Image Chart
1993 8 14 18 9.0 134.0 1008 0 2 Image Chart
1993 8 15 00 9.5 132.0 1008 0 2 Image Chart
1993 8 15 06 10.5 130.5 1008 0 2 Image Chart
1993 8 15 12 12.0 129.5 1008 0 2 Image Chart
1993 8 15 18 13.5 129.0 1008 0 2 Image Chart
1993 8 16 00 14.6 128.5 1008 0 2 Image Chart
1993 8 16 06 15.5 127.8 1008 0 2 Image Chart
1993 8 16 12 16.1 127.0 1004 0 2 Image Chart
1993 8 16 18 16.7 126.2 1000 0 2 Image Chart
1993 8 17 00 17.4 125.4 998 35 3 Image Chart
1993 8 17 06 18.1 124.5 996 35 3 Image Chart
1993 8 17 12 18.5 123.7 994 40 3 Image Chart
1993 8 17 18 18.8 122.8 990 45 3 Image Chart
1993 8 18 00 19.1 121.7 990 45 3 Image Chart
1993 8 18 06 19.4 120.4 990 45 3 Image Chart
1993 8 18 12 19.5 118.9 985 50 4 Image Chart
1993 8 18 18 19.5 117.6 985 50 4 Image Chart
1993 8 19 00 19.5 116.8 985 50 4 Image Chart
1993 8 19 06 19.5 116.0 980 55 4 Image Chart
1993 8 19 12 19.5 115.3 980 55 4 Image Chart
1993 8 19 18 19.7 114.6 980 55 4 Image Chart
1993 8 20 00 20.1 114.0 980 55 4 Image Chart
1993 8 20 06 20.5 113.3 975 60 4 Image Chart
1993 8 20 12 20.9 112.5 970 65 5 Image Chart
1993 8 20 18 21.3 111.8 970 65 5 Image Chart
1993 8 21 00 21.6 111.0 970 65 5 Image Chart
1993 8 21 06 22.0 110.2 980 55 4 Image Chart
1993 8 21 12 22.8 109.2 985 50 4 Image Chart
1993 8 21 18 23.6 108.3 990 45 3 Image Chart
1993 8 22 00 23.9 107.6 996 35 3 Image Chart
1993 8 22 06 24.0 107.0 998 0 2 Image Chart
1993 8 22 12 24.0 106.5 1000 0 2 Image Chart
Japan Meteorological Agency Best Track Data | Correction Date : 1994-01-10
< Typhoon 199308 1993 Season Typhoon 199310 >

Help